createdAt,value
2023-01-17T00:01:28.836Z,79.80
2023-01-17T00:04:15.183Z,80.27
2023-01-17T00:07:00.304Z,82.03
2023-01-17T00:09:45.678Z,81.65
2023-01-17T00:12:13.164Z,83.35
2023-01-17T00:14:40.646Z,82.22
2023-01-17T00:17:08.083Z,82.16
2023-01-17T00:19:54.662Z,83.25
2023-01-17T00:22:41.447Z,83.90
2023-01-17T00:25:29.413Z,83.44
2023-01-17T00:27:55.903Z,82.44
2023-01-17T00:30:22.941Z,81.35
2023-01-17T00:32:49.400Z,81.82
2023-01-17T00:35:17.478Z,81.27
2023-01-17T00:37:43.923Z,81.87
2023-01-17T00:40:11.378Z,80.85
2023-01-17T00:42:37.870Z,81.15
2023-01-17T00:45:23.701Z,81.64
2023-01-17T00:48:09.184Z,81.53
2023-01-17T00:50:56.395Z,81.54
2023-01-17T00:53:41.594Z,80.83
2023-01-17T00:56:27.050Z,81.67
2023-01-17T00:59:12.831Z,81.65
2023-01-17T01:01:58.283Z,81.60
2023-01-17T01:04:43.763Z,80.82
2023-01-17T01:07:30.213Z,80.50
2023-01-17T01:10:15.632Z,80.88
2023-01-17T01:13:00.949Z,81.20
2023-01-17T01:15:46.083Z,80.86
2023-01-17T01:18:31.529Z,80.89
2023-01-17T01:21:21.024Z,81.02
2023-01-17T01:24:07.699Z,80.63
2023-01-17T01:26:53.139Z,80.28
2023-01-17T01:29:38.289Z,80.62
2023-01-17T01:32:23.748Z,80.68
2023-01-17T01:34:51.220Z,81.26
2023-01-17T01:37:18.667Z,81.01
2023-01-17T01:39:47.447Z,80.94
2023-01-17T01:42:16.166Z,80.83
2023-01-17T01:44:48.546Z,80.13
2023-01-17T01:47:22.175Z,80.25
2023-01-17T01:49:50.368Z,80.97
2023-01-17T01:52:19.261Z,80.52
2023-01-17T01:54:51.540Z,80.99
2023-01-17T01:57:22.588Z,80.66
2023-01-17T01:59:53.707Z,81.30
2023-01-17T02:02:21.325Z,81.30
2023-01-17T02:04:49.211Z,81.09
2023-01-17T02:07:20.818Z,81.35
2023-01-17T02:09:50.063Z,80.97
2023-01-17T02:12:18.549Z,81.12
2023-01-17T02:14:46.038Z,81.45
2023-01-17T02:17:21.107Z,81.62
2023-01-17T02:20:16.121Z,81.02
2023-01-17T02:23:15.313Z,81.28
2023-01-17T02:26:05.910Z,81.14
2023-01-17T02:28:43.805Z,80.62
2023-01-17T02:31:15.885Z,80.86
2023-01-17T02:33:48.100Z,80.97
2023-01-17T02:36:19.353Z,80.34
2023-01-17T02:38:52.444Z,80.77
2023-01-17T02:41:22.959Z,81.02
2023-01-17T02:43:52.167Z,80.80
2023-01-17T02:46:21.013Z,81.05
2023-01-17T02:48:48.939Z,80.86
2023-01-17T02:51:29.873Z,80.98
2023-01-17T02:54:07.236Z,81.16
2023-01-17T02:56:44.785Z,81.06
2023-01-17T02:59:18.691Z,81.36
2023-01-17T03:02:01.594Z,81.35
2023-01-17T03:04:33.051Z,81.47
2023-01-17T03:07:02.859Z,81.53
2023-01-17T03:09:31.481Z,81.81
2023-01-17T03:11:59.854Z,81.83
2023-01-17T03:14:27.337Z,82.05
2023-01-17T03:16:56.741Z,82.31
2023-01-17T03:19:24.256Z,81.87
2023-01-17T03:21:51.716Z,82.51
2023-01-17T03:24:19.277Z,82.44
2023-01-17T03:26:47.919Z,82.78
2023-01-17T03:29:16.459Z,82.71
2023-01-17T03:31:43.992Z,82.83
2023-01-17T03:34:12.837Z,83.13
2023-01-17T03:36:40.336Z,83.07
2023-01-17T03:39:07.808Z,83.19
2023-01-17T03:41:35.336Z,83.10
2023-01-17T03:44:02.834Z,82.97
2023-01-17T03:46:30.329Z,83.24
2023-01-17T03:48:57.801Z,83.39
2023-01-17T03:51:27.030Z,83.08
2023-01-17T03:53:54.533Z,83.19
2023-01-17T03:56:22.344Z,83.20
2023-01-17T03:58:49.828Z,83.06
2023-01-17T04:01:17.341Z,83.39
2023-01-17T04:03:44.870Z,83.27
2023-01-17T04:06:12.421Z,83.11
2023-01-17T04:08:41.638Z,82.89
2023-01-17T04:11:09.132Z,83.45
2023-01-17T04:13:36.687Z,83.23
2023-01-17T04:16:04.367Z,83.07
2023-01-17T04:18:31.820Z,83.25
2023-01-17T04:20:59.272Z,83.34
2023-01-17T04:23:26.829Z,83.15
2023-01-17T04:25:55.613Z,83.09
2023-01-17T04:28:23.057Z,82.73
2023-01-17T04:30:50.531Z,83.13
2023-01-17T04:33:18.991Z,82.89
2023-01-17T04:35:46.461Z,82.80
2023-01-17T04:38:13.929Z,82.96
2023-01-17T04:40:41.453Z,82.67
2023-01-17T04:43:10.273Z,82.62
2023-01-17T04:45:38.730Z,83.01
2023-01-17T04:48:07.153Z,83.13
2023-01-17T04:50:35.827Z,83.19
2023-01-17T04:53:03.276Z,82.99
2023-01-17T04:55:30.799Z,82.81
2023-01-17T04:57:58.263Z,82.92
2023-01-17T05:00:27.082Z,82.96
2023-01-17T05:02:54.558Z,82.96
2023-01-17T05:05:22.048Z,82.83
2023-01-17T05:07:54.818Z,82.88
2023-01-17T05:10:22.353Z,82.91
2023-01-17T05:12:55.249Z,82.99
2023-01-17T05:15:23.071Z,83.33
2023-01-17T05:17:53.468Z,82.96
2023-01-17T05:20:20.967Z,83.06
2023-01-17T05:22:55.386Z,82.76
2023-01-17T05:25:23.330Z,82.66
2023-01-17T05:27:50.806Z,82.87
2023-01-17T05:30:18.852Z,83.16
2023-01-17T05:32:46.451Z,83.15
2023-01-17T05:35:15.446Z,83.05
2023-01-17T05:37:48.813Z,82.72
2023-01-17T05:40:16.765Z,82.85
2023-01-17T05:42:46.560Z,82.74
2023-01-17T05:45:16.849Z,82.97
2023-01-17T05:47:44.508Z,82.72
2023-01-17T05:50:12.516Z,82.74
2023-01-17T05:52:41.859Z,82.82
2023-01-17T05:55:10.179Z,83.65
2023-01-17T05:57:37.614Z,83.29
2023-01-17T06:00:06.039Z,83.72
2023-01-17T06:02:33.509Z,83.45
2023-01-17T06:05:03.367Z,83.15
2023-01-17T06:07:31.021Z,82.92
2023-01-17T06:09:59.804Z,83.08
2023-01-17T06:12:27.322Z,83.11
2023-01-17T06:14:54.922Z,83.43
2023-01-17T06:17:22.524Z,82.97
2023-01-17T06:19:50.018Z,82.57
2023-01-17T06:22:17.486Z,82.55
2023-01-17T06:24:44.924Z,82.48
2023-01-17T06:27:13.704Z,82.56
2023-01-17T06:29:41.146Z,82.26
2023-01-17T06:32:08.588Z,82.75
2023-01-17T06:34:36.059Z,83.71
2023-01-17T06:37:03.600Z,83.73
2023-01-17T06:39:31.105Z,83.76
2023-01-17T06:41:58.778Z,83.78
2023-01-17T06:44:27.782Z,83.99
2023-01-17T06:46:55.308Z,84.84
2023-01-17T06:49:22.790Z,84.98
2023-01-17T06:51:50.523Z,85.00
2023-01-17T06:54:18.846Z,85.32
2023-01-17T06:56:46.359Z,85.69
2023-01-17T06:59:13.867Z,85.62
2023-01-17T07:01:42.707Z,84.88
2023-01-17T07:04:10.225Z,84.99
2023-01-17T07:06:38.169Z,84.78
2023-01-17T07:09:06.006Z,84.79
2023-01-17T07:11:33.537Z,85.10
2023-01-17T07:14:01.057Z,85.78
2023-01-17T07:16:28.619Z,85.37
2023-01-17T07:18:58.114Z,84.45
2023-01-17T07:21:25.595Z,84.92
2023-01-17T07:23:53.082Z,85.31
2023-01-17T07:26:20.542Z,85.03
2023-01-17T07:28:47.983Z,85.02
2023-01-17T07:31:15.436Z,85.46
2023-01-17T07:33:42.903Z,85.33
2023-01-17T07:36:12.112Z,85.16
2023-01-17T07:38:40.352Z,85.04
2023-01-17T07:41:09.334Z,84.65
2023-01-17T07:43:38.385Z,85.16
2023-01-17T07:46:07.098Z,85.22
2023-01-17T07:48:34.806Z,84.75
2023-01-17T07:51:02.310Z,84.76
2023-01-17T07:53:32.953Z,84.90
2023-01-17T07:56:02.014Z,85.34
2023-01-17T07:58:29.774Z,84.93
2023-01-17T08:01:02.364Z,85.65
2023-01-17T08:03:32.235Z,84.91
2023-01-17T08:05:59.983Z,84.38
2023-01-17T08:08:27.424Z,84.94
2023-01-17T08:10:56.207Z,85.32
2023-01-17T08:13:23.754Z,85.50
2023-01-17T08:15:52.191Z,85.10
2023-01-17T08:18:19.660Z,85.07
2023-01-17T08:20:47.149Z,84.99
2023-01-17T08:23:14.689Z,84.76
2023-01-17T08:25:42.169Z,84.31
2023-01-17T08:28:10.996Z,84.97
2023-01-17T08:30:38.535Z,85.41
2023-01-17T08:33:06.124Z,85.64
2023-01-17T08:35:36.017Z,85.04
2023-01-17T08:38:04.834Z,85.22
2023-01-17T08:40:33.488Z,84.55
2023-01-17T08:43:01.915Z,84.94
2023-01-17T08:45:30.710Z,85.30
2023-01-17T08:47:58.960Z,84.94
2023-01-17T08:50:26.981Z,85.03
2023-01-17T08:53:01.054Z,83.98
2023-01-17T08:55:29.136Z,85.10
2023-01-17T08:57:57.414Z,84.58
2023-01-17T09:00:25.034Z,84.32
2023-01-17T09:02:54.171Z,84.92
2023-01-17T09:05:21.665Z,84.46
2023-01-17T09:07:49.101Z,84.70
2023-01-17T09:10:17.186Z,84.53
2023-01-17T09:12:44.657Z,84.57
2023-01-17T09:15:14.605Z,83.79
2023-01-17T09:17:42.071Z,84.37
2023-01-17T09:20:12.500Z,83.80
2023-01-17T09:22:39.975Z,84.54
2023-01-17T09:25:08.519Z,84.36
2023-01-17T09:27:35.977Z,84.67
2023-01-17T09:30:03.729Z,84.53
2023-01-17T09:32:31.183Z,83.98
2023-01-17T09:35:00.692Z,83.84
2023-01-17T09:37:29.994Z,84.29
2023-01-17T09:39:57.489Z,83.85
2023-01-17T09:42:31.677Z,82.97
2023-01-17T09:44:59.826Z,84.32
2023-01-17T09:47:34.050Z,84.19
2023-01-17T09:50:08.380Z,83.68
2023-01-17T09:52:37.284Z,83.55
2023-01-17T09:55:07.974Z,83.52
2023-01-17T09:57:42.338Z,82.89
2023-01-17T10:00:17.230Z,83.44
2023-01-17T10:02:55.723Z,83.34
2023-01-17T10:05:34.909Z,83.14
2023-01-17T10:08:14.245Z,83.47
2023-01-17T10:10:43.151Z,83.43
2023-01-17T10:13:25.107Z,82.93
2023-01-17T10:16:01.587Z,83.17
2023-01-17T10:18:45.616Z,83.10
2023-01-17T10:21:15.833Z,83.11
2023-01-17T10:23:59.126Z,83.27
2023-01-17T10:26:26.740Z,83.11
2023-01-17T10:28:56.420Z,82.79
2023-01-17T10:31:25.070Z,82.72
2023-01-17T10:33:53.957Z,82.99
2023-01-17T10:36:22.898Z,82.83
2023-01-17T10:38:53.527Z,82.86
2023-01-17T10:41:26.685Z,82.06
2023-01-17T10:44:02.409Z,82.53
2023-01-17T10:46:33.766Z,82.35
2023-01-17T10:49:02.206Z,81.97
2023-01-17T10:51:45.932Z,82.21
2023-01-17T10:54:24.309Z,82.04
2023-01-17T10:56:51.856Z,81.40
2023-01-17T10:59:29.323Z,82.23
2023-01-17T11:01:56.900Z,81.39
2023-01-17T11:04:32.305Z,80.84
2023-01-17T11:07:14.324Z,81.83
2023-01-17T11:09:44.267Z,82.02
2023-01-17T11:12:24.953Z,78.11
2023-01-17T11:14:58.714Z,80.78
2023-01-17T11:17:27.492Z,79.52
2023-01-17T11:19:55.567Z,81.09
2023-01-17T11:22:24.899Z,80.62
2023-01-17T11:24:54.876Z,80.03
2023-01-17T11:27:26.773Z,80.57
2023-01-17T11:30:07.381Z,81.05
2023-01-17T11:32:35.627Z,81.20
2023-01-17T11:35:08.553Z,80.00
2023-01-17T11:37:36.708Z,80.21
2023-01-17T11:40:14.411Z,80.70
2023-01-17T11:42:41.897Z,78.86
2023-01-17T11:45:24.882Z,79.75
2023-01-17T11:48:06.024Z,79.57
2023-01-17T11:50:33.492Z,79.99
2023-01-17T11:53:06.780Z,80.00
2023-01-17T11:55:35.612Z,79.07
2023-01-17T11:58:03.099Z,78.49
2023-01-17T12:00:35.009Z,79.79
2023-01-17T12:03:13.820Z,78.41
2023-01-17T12:05:51.451Z,79.77
2023-01-17T12:08:27.769Z,79.13
2023-01-17T12:11:01.843Z,80.07
2023-01-17T12:13:53.486Z,79.04
2023-01-17T12:16:30.908Z,78.63
2023-01-17T12:19:09.298Z,77.34
2023-01-17T12:21:45.078Z,78.83
2023-01-17T12:24:29.042Z,77.71
2023-01-17T12:27:00.920Z,78.36
2023-01-17T12:29:43.057Z,77.68
2023-01-17T12:32:27.912Z,76.73
2023-01-17T12:34:58.310Z,76.11
2023-01-17T12:37:30.440Z,76.41
2023-01-17T12:39:59.275Z,75.32
2023-01-17T12:42:32.982Z,76.27
2023-01-17T12:45:02.853Z,71.16
2023-01-17T12:47:31.093Z,76.34
2023-01-17T12:50:05.280Z,71.91
2023-01-17T12:52:46.372Z,76.79
2023-01-17T12:55:17.696Z,74.83
2023-01-17T12:57:49.453Z,74.69
2023-01-17T13:00:19.571Z,76.45
2023-01-17T13:02:51.476Z,73.75
2023-01-17T13:05:23.610Z,72.55
2023-01-17T13:07:56.527Z,74.06
2023-01-17T13:10:35.344Z,75.83
2023-01-17T13:13:14.273Z,76.21
2023-01-17T13:15:43.832Z,74.88
2023-01-17T13:18:15.983Z,75.32
2023-01-17T13:20:57.859Z,75.34
2023-01-17T13:23:30.378Z,72.29
2023-01-17T13:25:59.497Z,71.58
2023-01-17T13:28:37.311Z,74.66
2023-01-17T13:31:21.575Z,74.66
2023-01-17T13:34:02.203Z,72.05
2023-01-17T13:36:50.500Z,74.49
2023-01-17T13:39:50.118Z,75.23
2023-01-17T13:42:24.285Z,74.19
2023-01-17T13:44:53.145Z,73.84
2023-01-17T13:47:41.421Z,73.85
2023-01-17T13:50:42.688Z,74.93
2023-01-17T13:53:58.949Z,75.02
2023-01-17T13:56:34.447Z,75.03
2023-01-17T13:59:05.157Z,72.69
2023-01-17T14:01:52.388Z,72.56
2023-01-17T14:04:20.496Z,72.88
2023-01-17T14:06:50.078Z,74.81
2023-01-17T14:09:25.124Z,74.36
2023-01-17T14:12:05.868Z,74.18
2023-01-17T14:14:52.033Z,73.79
2023-01-17T14:17:57.981Z,74.31
2023-01-17T14:20:40.539Z,73.22
2023-01-17T14:23:33.890Z,74.47
2023-01-17T14:26:15.026Z,74.51
2023-01-17T14:28:42.502Z,75.28
2023-01-17T14:31:11.422Z,74.31
2023-01-17T14:33:41.932Z,72.93
2023-01-17T14:36:19.522Z,72.14
2023-01-17T14:38:47.132Z,73.37
2023-01-17T14:41:18.347Z,67.96
2023-01-17T14:43:46.617Z,73.55
2023-01-17T14:46:18.692Z,74.55
2023-01-17T14:48:47.668Z,75.24
2023-01-17T14:51:20.088Z,74.70
2023-01-17T14:53:54.030Z,73.34
2023-01-17T14:56:21.541Z,72.90
2023-01-17T14:58:49.125Z,71.83
2023-01-17T15:01:20.053Z,74.89
2023-01-17T15:03:51.632Z,75.89
2023-01-17T15:06:21.495Z,75.58
2023-01-17T15:08:49.619Z,74.82
2023-01-17T15:11:19.783Z,70.97
2023-01-17T15:13:49.980Z,75.35
2023-01-17T15:16:23.106Z,75.21
2023-01-17T15:18:52.577Z,74.99
2023-01-17T15:21:21.379Z,75.51
2023-01-17T15:23:50.270Z,74.25
2023-01-17T15:26:19.588Z,75.38
2023-01-17T15:28:47.492Z,75.05
2023-01-17T15:31:17.116Z,77.12
2023-01-17T15:33:46.596Z,76.96
2023-01-17T15:36:28.805Z,75.62
2023-01-17T15:39:00.039Z,76.46
2023-01-17T15:41:30.827Z,77.88
2023-01-17T15:43:58.806Z,76.47
2023-01-17T15:46:30.991Z,78.25
2023-01-17T15:49:17.313Z,76.39
2023-01-17T15:51:52.362Z,77.00
2023-01-17T15:54:35.749Z,76.76
2023-01-17T15:57:05.262Z,74.90
2023-01-17T15:59:43.749Z,77.11
2023-01-17T16:02:28.340Z,74.77
2023-01-17T16:04:55.950Z,78.14
2023-01-17T16:07:31.563Z,76.04
2023-01-17T16:10:06.358Z,76.73
2023-01-17T16:12:33.834Z,73.33
2023-01-17T16:15:12.324Z,74.60
2023-01-17T16:17:41.247Z,78.27
2023-01-17T16:20:15.944Z,75.90
2023-01-17T16:22:44.736Z,78.50
2023-01-17T16:25:16.221Z,76.54
2023-01-17T16:27:43.718Z,79.39
2023-01-17T16:30:15.198Z,79.73
2023-01-17T16:32:42.965Z,78.18
2023-01-17T16:35:18.900Z,77.46
2023-01-17T16:37:50.021Z,78.06
2023-01-17T16:40:17.921Z,78.01
2023-01-17T16:42:45.895Z,78.52
2023-01-17T16:45:14.815Z,75.20
2023-01-17T16:47:43.181Z,79.50
2023-01-17T16:50:12.535Z,78.95
2023-01-17T16:52:40.261Z,79.21
2023-01-17T16:55:12.168Z,79.00
2023-01-17T16:57:39.886Z,79.81
2023-01-17T17:00:08.526Z,78.75
2023-01-17T17:02:36.145Z,77.88
2023-01-17T17:05:05.365Z,79.49
2023-01-17T17:07:32.821Z,78.69
2023-01-17T17:10:00.340Z,79.51
2023-01-17T17:12:29.129Z,81.00
2023-01-17T17:14:56.600Z,82.82
2023-01-17T17:17:24.096Z,79.68
2023-01-17T17:19:51.561Z,80.73
2023-01-17T17:22:19.356Z,82.26
2023-01-17T17:24:46.941Z,81.76
2023-01-17T17:27:14.523Z,81.52
2023-01-17T17:29:43.286Z,81.74
2023-01-17T17:32:11.553Z,81.52
2023-01-17T17:34:39.172Z,82.63
2023-01-17T17:37:06.645Z,83.30
2023-01-17T17:39:34.095Z,84.52
2023-01-17T17:42:01.551Z,85.47
2023-01-17T17:44:29.209Z,86.43
2023-01-17T17:46:58.026Z,86.97
2023-01-17T17:49:25.730Z,86.19
2023-01-17T17:51:53.471Z,87.18
2023-01-17T17:54:22.048Z,86.16
2023-01-17T17:56:49.716Z,86.62
2023-01-17T17:59:19.463Z,87.40
2023-01-17T18:01:48.023Z,87.86
2023-01-17T18:04:17.004Z,87.08
2023-01-17T18:06:45.273Z,87.91
2023-01-17T18:09:13.712Z,88.49
2023-01-17T18:11:42.608Z,88.69
2023-01-17T18:14:12.353Z,88.93
2023-01-17T18:16:42.132Z,89.26
2023-01-17T18:19:12.590Z,89.27
2023-01-17T18:21:41.723Z,88.96
2023-01-17T18:24:11.228Z,89.18
2023-01-17T18:26:40.040Z,88.86
2023-01-17T18:29:09.560Z,88.62
2023-01-17T18:31:37.411Z,87.29
2023-01-17T18:34:06.791Z,87.56
2023-01-17T18:36:35.646Z,88.90
2023-01-17T18:39:06.345Z,90.02
2023-01-17T18:41:34.594Z,87.62
2023-01-17T18:44:04.975Z,88.62
2023-01-17T18:46:33.000Z,89.11
2023-01-17T18:49:00.625Z,89.59
2023-01-17T18:51:31.758Z,89.72
2023-01-17T18:54:02.800Z,89.30
2023-01-17T18:56:34.124Z,89.36
2023-01-17T18:59:01.953Z,89.31
2023-01-17T19:01:30.734Z,89.16
2023-01-17T19:04:00.018Z,90.21
2023-01-17T19:06:30.387Z,90.53
2023-01-17T19:08:58.862Z,90.88
2023-01-17T19:11:27.788Z,90.42
2023-01-17T19:13:57.374Z,90.73
2023-01-17T19:16:27.974Z,90.65
2023-01-17T19:18:56.487Z,90.52
2023-01-17T19:21:25.849Z,90.74
2023-01-17T19:23:54.454Z,90.76
2023-01-17T19:26:23.863Z,90.80
2023-01-17T19:28:51.854Z,90.70
2023-01-17T19:31:22.171Z,90.60
2023-01-17T19:33:51.204Z,89.85
2023-01-17T19:36:20.954Z,90.47
2023-01-17T19:39:02.983Z,89.84
2023-01-17T19:41:31.831Z,88.83
2023-01-17T19:44:01.945Z,88.02
2023-01-17T19:46:31.561Z,88.05
2023-01-17T19:48:59.550Z,90.14
2023-01-17T19:51:27.641Z,89.58
2023-01-17T19:53:55.678Z,89.47
2023-01-17T19:56:25.369Z,89.34
2023-01-17T19:58:53.344Z,89.23
2023-01-17T20:01:24.504Z,88.86
2023-01-17T20:03:55.006Z,89.30
2023-01-17T20:06:25.749Z,89.81
2023-01-17T20:08:53.206Z,90.43
2023-01-17T20:11:22.188Z,90.20
2023-01-17T20:13:53.038Z,90.76
2023-01-17T20:16:20.878Z,90.68
2023-01-17T20:18:48.830Z,91.46
2023-01-17T20:21:19.126Z,90.90
2023-01-17T20:23:47.864Z,90.43
2023-01-17T20:26:16.766Z,90.48
2023-01-17T20:28:48.186Z,90.99
2023-01-17T20:31:17.078Z,90.63
2023-01-17T20:33:46.883Z,91.20
2023-01-17T20:36:15.876Z,91.86
2023-01-17T20:38:45.210Z,91.03
2023-01-17T20:41:14.536Z,91.28
2023-01-17T20:43:42.709Z,91.33
2023-01-17T20:46:10.632Z,91.52
2023-01-17T20:48:39.054Z,91.38
2023-01-17T20:51:10.644Z,91.84
2023-01-17T20:53:38.837Z,92.35
2023-01-17T20:56:08.902Z,92.15
2023-01-17T20:58:38.403Z,92.20
2023-01-17T21:01:06.854Z,92.06
2023-01-17T21:03:35.592Z,92.12
2023-01-17T21:06:04.331Z,91.76
2023-01-17T21:08:33.059Z,92.37
2023-01-17T21:11:00.679Z,91.67
2023-01-17T21:13:29.750Z,91.28
2023-01-17T21:15:57.411Z,91.37
2023-01-17T21:18:25.894Z,91.61
2023-01-17T21:20:53.463Z,91.86
2023-01-17T21:23:21.151Z,91.22
2023-01-17T21:25:58.419Z,91.92
2023-01-17T21:28:27.949Z,91.78
2023-01-17T21:30:57.632Z,91.09
2023-01-17T21:33:26.333Z,90.65
2023-01-17T21:35:53.972Z,91.42
2023-01-17T21:38:21.905Z,91.98
2023-01-17T21:40:49.410Z,91.52
2023-01-17T21:43:16.884Z,92.35
2023-01-17T21:45:44.314Z,92.08
2023-01-17T21:48:13.284Z,92.61
2023-01-17T21:50:40.844Z,92.67
2023-01-17T21:53:09.914Z,92.41
2023-01-17T21:55:55.598Z,91.14
2023-01-17T21:58:41.208Z,91.57
2023-01-17T22:01:11.038Z,92.07
2023-01-17T22:03:39.892Z,92.46
2023-01-17T22:06:07.787Z,91.24
2023-01-17T22:08:35.737Z,91.55
2023-01-17T22:11:04.333Z,91.15
2023-01-17T22:13:33.200Z,91.85
2023-01-17T22:16:02.225Z,91.74
2023-01-17T22:18:30.028Z,91.61
2023-01-17T22:20:59.270Z,91.84
2023-01-17T22:23:26.776Z,90.49
2023-01-17T22:25:54.228Z,90.18
2023-01-17T22:28:21.928Z,90.83
2023-01-17T22:30:49.651Z,89.83
2023-01-17T22:33:17.286Z,90.65
2023-01-17T22:35:44.774Z,90.05
2023-01-17T22:38:13.643Z,91.03
2023-01-17T22:40:41.142Z,91.76
2023-01-17T22:43:08.595Z,91.13
2023-01-17T22:45:36.234Z,92.01
2023-01-17T22:48:03.689Z,91.72
2023-01-17T22:50:31.191Z,91.84
2023-01-17T22:52:59.004Z,91.88
2023-01-17T22:55:27.997Z,92.29
2023-01-17T22:57:55.588Z,92.48
2023-01-17T23:00:23.034Z,92.57
2023-01-17T23:02:50.559Z,92.52
2023-01-17T23:05:18.281Z,92.41
2023-01-17T23:07:50.348Z,91.80
2023-01-17T23:10:39.085Z,92.06
2023-01-17T23:13:10.884Z,92.49
2023-01-17T23:15:56.588Z,92.05
2023-01-17T23:18:41.789Z,91.63
2023-01-17T23:21:09.480Z,91.57
2023-01-17T23:23:36.992Z,91.66
2023-01-17T23:26:04.443Z,91.66
2023-01-17T23:28:32.318Z,91.70
2023-01-17T23:31:03.454Z,91.47
2023-01-17T23:33:31.020Z,91.46
2023-01-17T23:35:58.521Z,91.62
2023-01-17T23:38:29.948Z,92.26
2023-01-17T23:41:19.711Z,91.96
2023-01-17T23:43:52.581Z,92.62
2023-01-17T23:46:20.816Z,92.01
2023-01-17T23:48:48.720Z,92.04
2023-01-17T23:51:16.530Z,92.30
2023-01-17T23:53:43.993Z,92.00
2023-01-17T23:56:15.362Z,92.56
2023-01-17T23:58:42.991Z,92.75
